sensor_id;sensor_type;location;lat;lon;timestamp;P1;durP1;ratioP1;P2;durP2;ratioP2
55063;SDS011;40963;52.168;21.296;2023-03-23T00:01:17;34.13;;;18.55;;
55063;SDS011;40963;52.168;21.296;2023-03-23T00:03:50;36.80;;;18.80;;
55063;SDS011;40963;52.168;21.296;2023-03-23T00:06:17;43.45;;;22.48;;
55063;SDS011;40963;52.168;21.296;2023-03-23T00:08:44;37.00;;;18.75;;
55063;SDS011;40963;52.168;21.296;2023-03-23T00:11:15;40.78;;;21.15;;
55063;SDS011;40963;52.168;21.296;2023-03-23T00:13:46;41.05;;;18.70;;
55063;SDS011;40963;52.168;21.296;2023-03-23T00:16:16;45.10;;;17.58;;
55063;SDS011;40963;52.168;21.296;2023-03-23T00:18:47;34.58;;;17.42;;
55063;SDS011;40963;52.168;21.296;2023-03-23T00:21:17;38.20;;;16.63;;
55063;SDS011;40963;52.168;21.296;2023-03-23T00:23:44;34.92;;;17.45;;
55063;SDS011;40963;52.168;21.296;2023-03-23T00:26:10;38.92;;;17.63;;
55063;SDS011;40963;52.168;21.296;2023-03-23T00:28:36;36.70;;;18.50;;
55063;SDS011;40963;52.168;21.296;2023-03-23T00:31:05;38.58;;;18.40;;
55063;SDS011;40963;52.168;21.296;2023-03-23T00:33:33;37.22;;;18.52;;
55063;SDS011;40963;52.168;21.296;2023-03-23T00:36:06;38.53;;;17.95;;
55063;SDS011;40963;52.168;21.296;2023-03-23T00:38:35;43.28;;;19.33;;
55063;SDS011;40963;52.168;21.296;2023-03-23T00:41:02;38.45;;;18.35;;
55063;SDS011;40963;52.168;21.296;2023-03-23T00:43:28;36.65;;;18.70;;
55063;SDS011;40963;52.168;21.296;2023-03-23T00:45:55;40.10;;;19.63;;
55063;SDS011;40963;52.168;21.296;2023-03-23T00:48:22;47.35;;;23.55;;
55063;SDS011;40963;52.168;21.296;2023-03-23T00:50:49;44.88;;;21.00;;
55063;SDS011;40963;52.168;21.296;2023-03-23T00:53:16;47.63;;;23.17;;
55063;SDS011;40963;52.168;21.296;2023-03-23T00:55:43;46.70;;;21.23;;
55063;SDS011;40963;52.168;21.296;2023-03-23T00:58:10;55.00;;;27.02;;
55063;SDS011;40963;52.168;21.296;2023-03-23T01:00:36;40.75;;;20.77;;
55063;SDS011;40963;52.168;21.296;2023-03-23T01:03:02;49.03;;;24.77;;
55063;SDS011;40963;52.168;21.296;2023-03-23T01:05:28;41.00;;;20.13;;
55063;SDS011;40963;52.168;21.296;2023-03-23T01:07:57;56.78;;;23.75;;
55063;SDS011;40963;52.168;21.296;2023-03-23T01:10:23;56.60;;;26.23;;
55063;SDS011;40963;52.168;21.296;2023-03-23T01:12:51;50.55;;;23.38;;
55063;SDS011;40963;52.168;21.296;2023-03-23T01:15:18;45.78;;;19.88;;
55063;SDS011;40963;52.168;21.296;2023-03-23T01:17:45;42.80;;;20.27;;
55063;SDS011;40963;52.168;21.296;2023-03-23T01:20:12;47.92;;;20.55;;
55063;SDS011;40963;52.168;21.296;2023-03-23T01:22:40;51.22;;;22.77;;
55063;SDS011;40963;52.168;21.296;2023-03-23T01:25:07;48.97;;;22.65;;
55063;SDS011;40963;52.168;21.296;2023-03-23T01:27:33;43.22;;;21.17;;
55063;SDS011;40963;52.168;21.296;2023-03-23T01:29:59;43.45;;;21.35;;
55063;SDS011;40963;52.168;21.296;2023-03-23T01:32:25;42.30;;;20.30;;
55063;SDS011;40963;52.168;21.296;2023-03-23T01:34:51;42.63;;;18.85;;
55063;SDS011;40963;52.168;21.296;2023-03-23T01:37:17;37.45;;;18.90;;
55063;SDS011;40963;52.168;21.296;2023-03-23T01:39:43;47.33;;;19.35;;
55063;SDS011;40963;52.168;21.296;2023-03-23T01:42:09;41.67;;;18.42;;
55063;SDS011;40963;52.168;21.296;2023-03-23T01:47:00;35.55;;;19.27;;
55063;SDS011;40963;52.168;21.296;2023-03-23T01:49:31;37.20;;;18.70;;
55063;SDS011;40963;52.168;21.296;2023-03-23T01:52:07;37.28;;;17.65;;
55063;SDS011;40963;52.168;21.296;2023-03-23T01:54:38;38.95;;;19.10;;
55063;SDS011;40963;52.168;21.296;2023-03-23T01:57:13;33.65;;;17.02;;
55063;SDS011;40963;52.168;21.296;2023-03-23T01:59:42;44.22;;;18.58;;
55063;SDS011;40963;52.168;21.296;2023-03-23T02:02:10;37.42;;;17.83;;
55063;SDS011;40963;52.168;21.296;2023-03-23T02:04:37;43.03;;;18.95;;
55063;SDS011;40963;52.168;21.296;2023-03-23T02:07:05;40.13;;;18.77;;
55063;SDS011;40963;52.168;21.296;2023-03-23T02:09:31;45.40;;;19.23;;
55063;SDS011;40963;52.168;21.296;2023-03-23T02:11:56;38.80;;;18.67;;
55063;SDS011;40963;52.168;21.296;2023-03-23T02:14:23;39.25;;;19.27;;
55063;SDS011;40963;52.168;21.296;2023-03-23T02:35:37;40.42;;;19.60;;
55063;SDS011;40963;52.168;21.296;2023-03-23T02:38:14;37.22;;;19.42;;
55063;SDS011;40963;52.168;21.296;2023-03-23T02:40:47;39.10;;;18.52;;
55063;SDS011;40963;52.168;21.296;2023-03-23T02:43:16;42.35;;;20.58;;
55063;SDS011;40963;52.168;21.296;2023-03-23T02:45:45;39.30;;;18.80;;
55063;SDS011;40963;52.168;21.296;2023-03-23T02:48:11;44.78;;;20.55;;
55063;SDS011;40963;52.168;21.296;2023-03-23T02:50:40;40.05;;;21.10;;
55063;SDS011;40963;52.168;21.296;2023-03-23T02:53:10;38.30;;;19.25;;
55063;SDS011;40963;52.168;21.296;2023-03-23T02:55:39;41.25;;;20.15;;
55063;SDS011;40963;52.168;21.296;2023-03-23T02:58:08;40.83;;;20.10;;
55063;SDS011;40963;52.168;21.296;2023-03-23T03:00:35;40.00;;;19.77;;
55063;SDS011;40963;52.168;21.296;2023-03-23T03:03:01;43.25;;;19.63;;
55063;SDS011;40963;52.168;21.296;2023-03-23T03:08:31;49.15;;;21.00;;
55063;SDS011;40963;52.168;21.296;2023-03-23T03:11:11;38.83;;;19.23;;
55063;SDS011;40963;52.168;21.296;2023-03-23T03:13:49;38.53;;;20.10;;
55063;SDS011;40963;52.168;21.296;2023-03-23T03:16:27;38.78;;;19.98;;
55063;SDS011;40963;52.168;21.296;2023-03-23T03:19:13;39.92;;;20.17;;
55063;SDS011;40963;52.168;21.296;2023-03-23T03:21:44;45.30;;;20.00;;
55063;SDS011;40963;52.168;21.296;2023-03-23T03:24:12;45.65;;;20.38;;
55063;SDS011;40963;52.168;21.296;2023-03-23T03:26:43;42.70;;;19.90;;
55063;SDS011;40963;52.168;21.296;2023-03-23T03:29:12;49.05;;;21.15;;
55063;SDS011;40963;52.168;21.296;2023-03-23T03:31:42;43.35;;;20.23;;
55063;SDS011;40963;52.168;21.296;2023-03-23T03:34:10;43.80;;;20.38;;
55063;SDS011;40963;52.168;21.296;2023-03-23T03:36:36;39.90;;;19.23;;
55063;SDS011;40963;52.168;21.296;2023-03-23T03:39:03;40.33;;;20.17;;
55063;SDS011;40963;52.168;21.296;2023-03-23T03:41:32;39.15;;;19.77;;
55063;SDS011;40963;52.168;21.296;2023-03-23T03:43:59;44.50;;;20.88;;
55063;SDS011;40963;52.168;21.296;2023-03-23T03:46:25;40.92;;;20.00;;
55063;SDS011;40963;52.168;21.296;2023-03-23T03:48:54;45.10;;;20.58;;
55063;SDS011;40963;52.168;21.296;2023-03-23T03:51:21;40.55;;;21.42;;
55063;SDS011;40963;52.168;21.296;2023-03-23T03:53:47;37.17;;;19.00;;
55063;SDS011;40963;52.168;21.296;2023-03-23T03:56:13;44.83;;;19.63;;
55063;SDS011;40963;52.168;21.296;2023-03-23T03:58:39;41.95;;;19.92;;
55063;SDS011;40963;52.168;21.296;2023-03-23T04:01:07;41.28;;;20.52;;
55063;SDS011;40963;52.168;21.296;2023-03-23T04:03:35;37.97;;;20.75;;
55063;SDS011;40963;52.168;21.296;2023-03-23T04:06:01;38.75;;;20.05;;
55063;SDS011;40963;52.168;21.296;2023-03-23T04:08:27;42.83;;;20.58;;
55063;SDS011;40963;52.168;21.296;2023-03-23T04:10:53;38.75;;;19.55;;
55063;SDS011;40963;52.168;21.296;2023-03-23T04:13:19;43.03;;;20.48;;
55063;SDS011;40963;52.168;21.296;2023-03-23T04:15:46;35.95;;;19.85;;
55063;SDS011;40963;52.168;21.296;2023-03-23T04:18:12;41.85;;;20.27;;
55063;SDS011;40963;52.168;21.296;2023-03-23T04:20:40;40.63;;;20.40;;
55063;SDS011;40963;52.168;21.296;2023-03-23T04:23:07;42.65;;;19.80;;
55063;SDS011;40963;52.168;21.296;2023-03-23T04:25:33;43.38;;;21.52;;
55063;SDS011;40963;52.168;21.296;2023-03-23T04:28:00;40.63;;;20.17;;
55063;SDS011;40963;52.168;21.296;2023-03-23T04:30:26;42.20;;;21.02;;
55063;SDS011;40963;52.168;21.296;2023-03-23T04:32:54;43.88;;;19.67;;
55063;SDS011;40963;52.168;21.296;2023-03-23T04:35:21;42.35;;;19.73;;
55063;SDS011;40963;52.168;21.296;2023-03-23T04:37:51;39.30;;;20.17;;
55063;SDS011;40963;52.168;21.296;2023-03-23T04:40:17;40.80;;;20.85;;
55063;SDS011;40963;52.168;21.296;2023-03-23T04:42:43;46.40;;;20.63;;
55063;SDS011;40963;52.168;21.296;2023-03-23T04:45:14;40.45;;;19.88;;
55063;SDS011;40963;52.168;21.296;2023-03-23T04:47:46;44.60;;;20.95;;
55063;SDS011;40963;52.168;21.296;2023-03-23T04:50:18;42.22;;;20.48;;
55063;SDS011;40963;52.168;21.296;2023-03-23T04:52:46;42.70;;;20.92;;
55063;SDS011;40963;52.168;21.296;2023-03-23T04:55:12;45.20;;;20.70;;
55063;SDS011;40963;52.168;21.296;2023-03-23T04:57:39;44.15;;;21.63;;
55063;SDS011;40963;52.168;21.296;2023-03-23T05:00:05;39.95;;;21.98;;
55063;SDS011;40963;52.168;21.296;2023-03-23T05:02:36;42.90;;;20.70;;
55063;SDS011;40963;52.168;21.296;2023-03-23T05:05:04;39.22;;;21.02;;
55063;SDS011;40963;52.168;21.296;2023-03-23T05:07:35;42.33;;;21.00;;
55063;SDS011;40963;52.168;21.296;2023-03-23T05:10:02;40.78;;;19.90;;
55063;SDS011;40963;52.168;21.296;2023-03-23T05:12:28;45.70;;;20.90;;
55063;SDS011;40963;52.168;21.296;2023-03-23T05:14:54;40.28;;;19.80;;
55063;SDS011;40963;52.168;21.296;2023-03-23T05:17:20;46.17;;;21.10;;
55063;SDS011;40963;52.168;21.296;2023-03-23T05:19:49;45.08;;;20.13;;
55063;SDS011;40963;52.168;21.296;2023-03-23T05:22:16;44.28;;;21.15;;
55063;SDS011;40963;52.168;21.296;2023-03-23T05:24:42;37.05;;;20.25;;
55063;SDS011;40963;52.168;21.296;2023-03-23T05:27:11;37.42;;;19.65;;
55063;SDS011;40963;52.168;21.296;2023-03-23T05:29:37;41.72;;;21.08;;
55063;SDS011;40963;52.168;21.296;2023-03-23T05:32:05;37.17;;;20.23;;
55063;SDS011;40963;52.168;21.296;2023-03-23T05:34:32;36.33;;;19.35;;
55063;SDS011;40963;52.168;21.296;2023-03-23T05:37:01;38.67;;;20.77;;
55063;SDS011;40963;52.168;21.296;2023-03-23T05:39:28;38.60;;;19.95;;
55063;SDS011;40963;52.168;21.296;2023-03-23T05:41:56;39.83;;;20.77;;
55063;SDS011;40963;52.168;21.296;2023-03-23T05:44:22;41.17;;;19.88;;
55063;SDS011;40963;52.168;21.296;2023-03-23T05:46:47;36.67;;;19.27;;
55063;SDS011;40963;52.168;21.296;2023-03-23T05:49:16;36.88;;;19.02;;
55063;SDS011;40963;52.168;21.296;2023-03-23T05:51:45;52.08;;;20.50;;
55063;SDS011;40963;52.168;21.296;2023-03-23T05:54:11;39.05;;;19.42;;
55063;SDS011;40963;52.168;21.296;2023-03-23T05:56:38;39.60;;;19.02;;
55063;SDS011;40963;52.168;21.296;2023-03-23T05:59:04;38.88;;;18.30;;
55063;SDS011;40963;52.168;21.296;2023-03-23T06:01:29;35.00;;;17.98;;
55063;SDS011;40963;52.168;21.296;2023-03-23T06:03:56;39.97;;;18.50;;
55063;SDS011;40963;52.168;21.296;2023-03-23T06:06:23;39.47;;;19.27;;
55063;SDS011;40963;52.168;21.296;2023-03-23T06:08:49;31.52;;;18.55;;
55063;SDS011;40963;52.168;21.296;2023-03-23T06:11:15;38.75;;;18.17;;
55063;SDS011;40963;52.168;21.296;2023-03-23T06:13:41;33.20;;;17.33;;
55063;SDS011;40963;52.168;21.296;2023-03-23T06:16:07;42.28;;;18.88;;
55063;SDS011;40963;52.168;21.296;2023-03-23T06:18:33;38.75;;;19.17;;
55063;SDS011;40963;52.168;21.296;2023-03-23T06:21:01;37.63;;;18.40;;
55063;SDS011;40963;52.168;21.296;2023-03-23T06:23:28;35.47;;;18.58;;
55063;SDS011;40963;52.168;21.296;2023-03-23T06:25:55;31.73;;;17.58;;
55063;SDS011;40963;52.168;21.296;2023-03-23T06:28:24;35.45;;;17.55;;
55063;SDS011;40963;52.168;21.296;2023-03-23T06:30:50;34.58;;;18.02;;
55063;SDS011;40963;52.168;21.296;2023-03-23T06:33:16;36.05;;;18.23;;
55063;SDS011;40963;52.168;21.296;2023-03-23T06:35:42;33.33;;;17.38;;
55063;SDS011;40963;52.168;21.296;2023-03-23T06:38:08;43.55;;;18.05;;
55063;SDS011;40963;52.168;21.296;2023-03-23T06:40:34;37.17;;;17.75;;
55063;SDS011;40963;52.168;21.296;2023-03-23T06:43:01;39.08;;;17.48;;
55063;SDS011;40963;52.168;21.296;2023-03-23T06:45:28;38.97;;;16.48;;
55063;SDS011;40963;52.168;21.296;2023-03-23T06:47:53;35.85;;;17.48;;
55063;SDS011;40963;52.168;21.296;2023-03-23T06:50:19;30.55;;;16.38;;
55063;SDS011;40963;52.168;21.296;2023-03-23T06:52:46;34.08;;;16.52;;
55063;SDS011;40963;52.168;21.296;2023-03-23T06:55:13;36.58;;;18.05;;
55063;SDS011;40963;52.168;21.296;2023-03-23T06:57:39;37.47;;;16.08;;
55063;SDS011;40963;52.168;21.296;2023-03-23T07:00:06;35.22;;;16.00;;
55063;SDS011;40963;52.168;21.296;2023-03-23T07:02:42;33.78;;;17.05;;
55063;SDS011;40963;52.168;21.296;2023-03-23T07:05:09;33.20;;;16.48;;
55063;SDS011;40963;52.168;21.296;2023-03-23T07:07:36;37.67;;;16.10;;
55063;SDS011;40963;52.168;21.296;2023-03-23T07:10:03;37.40;;;15.60;;
55063;SDS011;40963;52.168;21.296;2023-03-23T07:12:30;30.65;;;15.68;;
55063;SDS011;40963;52.168;21.296;2023-03-23T07:14:56;30.13;;;15.48;;
55063;SDS011;40963;52.168;21.296;2023-03-23T07:17:21;29.13;;;15.65;;
55063;SDS011;40963;52.168;21.296;2023-03-23T07:19:47;35.08;;;15.85;;
55063;SDS011;40963;52.168;21.296;2023-03-23T07:22:13;25.27;;;13.98;;
55063;SDS011;40963;52.168;21.296;2023-03-23T07:24:39;29.70;;;14.00;;
55063;SDS011;40963;52.168;21.296;2023-03-23T07:27:04;27.95;;;13.93;;
55063;SDS011;40963;52.168;21.296;2023-03-23T07:29:30;23.90;;;13.60;;
55063;SDS011;40963;52.168;21.296;2023-03-23T07:31:59;25.15;;;13.43;;
55063;SDS011;40963;52.168;21.296;2023-03-23T07:34:26;27.05;;;12.93;;
55063;SDS011;40963;52.168;21.296;2023-03-23T07:36:53;26.98;;;13.18;;
55063;SDS011;40963;52.168;21.296;2023-03-23T07:39:19;22.33;;;12.73;;
55063;SDS011;40963;52.168;21.296;2023-03-23T07:41:44;25.55;;;12.60;;
55063;SDS011;40963;52.168;21.296;2023-03-23T07:44:10;21.35;;;12.68;;
55063;SDS011;40963;52.168;21.296;2023-03-23T07:46:36;23.60;;;12.82;;
55063;SDS011;40963;52.168;21.296;2023-03-23T07:49:02;28.15;;;11.50;;
55063;SDS011;40963;52.168;21.296;2023-03-23T07:51:30;18.65;;;11.02;;
55063;SDS011;40963;52.168;21.296;2023-03-23T07:53:57;21.40;;;11.63;;
55063;SDS011;40963;52.168;21.296;2023-03-23T07:56:23;19.40;;;10.45;;
55063;SDS011;40963;52.168;21.296;2023-03-23T07:58:49;23.10;;;11.23;;
55063;SDS011;40963;52.168;21.296;2023-03-23T08:01:15;25.38;;;11.35;;
55063;SDS011;40963;52.168;21.296;2023-03-23T08:03:41;19.15;;;10.30;;
55063;SDS011;40963;52.168;21.296;2023-03-23T08:06:07;19.40;;;10.77;;
55063;SDS011;40963;52.168;21.296;2023-03-23T08:08:34;20.90;;;9.93;;
55063;SDS011;40963;52.168;21.296;2023-03-23T08:11:02;48.03;;;10.70;;
55063;SDS011;40963;52.168;21.296;2023-03-23T08:13:28;15.93;;;9.70;;
55063;SDS011;40963;52.168;21.296;2023-03-23T08:15:54;21.45;;;9.88;;
55063;SDS011;40963;52.168;21.296;2023-03-23T08:18:20;23.20;;;9.55;;
55063;SDS011;40963;52.168;21.296;2023-03-23T08:20:45;17.77;;;8.60;;
55063;SDS011;40963;52.168;21.296;2023-03-23T08:23:11;15.10;;;8.48;;
55063;SDS011;40963;52.168;21.296;2023-03-23T08:25:37;17.02;;;8.27;;
55063;SDS011;40963;52.168;21.296;2023-03-23T08:28:03;15.98;;;8.30;;
55063;SDS011;40963;52.168;21.296;2023-03-23T08:30:29;17.65;;;8.30;;
55063;SDS011;40963;52.168;21.296;2023-03-23T08:32:57;18.08;;;8.60;;
55063;SDS011;40963;52.168;21.296;2023-03-23T08:35:25;12.75;;;7.70;;
55063;SDS011;40963;52.168;21.296;2023-03-23T08:37:50;19.40;;;8.70;;
55063;SDS011;40963;52.168;21.296;2023-03-23T08:40:18;15.82;;;8.15;;
55063;SDS011;40963;52.168;21.296;2023-03-23T08:42:46;13.60;;;8.85;;
55063;SDS011;40963;52.168;21.296;2023-03-23T08:45:14;17.40;;;8.18;;
55063;SDS011;40963;52.168;21.296;2023-03-23T08:47:42;13.75;;;8.02;;
55063;SDS011;40963;52.168;21.296;2023-03-23T08:50:11;11.68;;;7.60;;
55063;SDS011;40963;52.168;21.296;2023-03-23T08:52:38;15.88;;;7.55;;
55063;SDS011;40963;52.168;21.296;2023-03-23T08:55:04;10.90;;;6.97;;
55063;SDS011;40963;52.168;21.296;2023-03-23T08:57:33;14.32;;;6.47;;
55063;SDS011;40963;52.168;21.296;2023-03-23T09:00:01;13.57;;;6.97;;
55063;SDS011;40963;52.168;21.296;2023-03-23T09:02:38;9.30;;;6.00;;
55063;SDS011;40963;52.168;21.296;2023-03-23T09:05:04;8.60;;;5.18;;
55063;SDS011;40963;52.168;21.296;2023-03-23T09:07:30;8.18;;;5.50;;
55063;SDS011;40963;52.168;21.296;2023-03-23T09:09:55;14.90;;;7.32;;
55063;SDS011;40963;52.168;21.296;2023-03-23T09:12:21;16.48;;;6.63;;
55063;SDS011;40963;52.168;21.296;2023-03-23T09:14:48;16.13;;;6.78;;
55063;SDS011;40963;52.168;21.296;2023-03-23T09:17:14;11.48;;;5.95;;
55063;SDS011;40963;52.168;21.296;2023-03-23T09:19:40;10.77;;;5.75;;
55063;SDS011;40963;52.168;21.296;2023-03-23T09:22:06;15.25;;;6.53;;
55063;SDS011;40963;52.168;21.296;2023-03-23T09:24:33;13.32;;;6.57;;
55063;SDS011;40963;52.168;21.296;2023-03-23T09:26:59;12.50;;;6.30;;
55063;SDS011;40963;52.168;21.296;2023-03-23T09:29:25;11.75;;;5.85;;
55063;SDS011;40963;52.168;21.296;2023-03-23T09:31:52;9.55;;;6.40;;
55063;SDS011;40963;52.168;21.296;2023-03-23T09:34:19;10.60;;;5.13;;
55063;SDS011;40963;52.168;21.296;2023-03-23T09:36:44;11.63;;;6.15;;
55063;SDS011;40963;52.168;21.296;2023-03-23T09:39:11;13.82;;;7.35;;
55063;SDS011;40963;52.168;21.296;2023-03-23T09:47:40;9.93;;;6.15;;
55063;SDS011;40963;52.168;21.296;2023-03-23T09:50:15;12.25;;;5.80;;
55063;SDS011;40963;52.168;21.296;2023-03-23T09:52:48;12.20;;;6.47;;
55063;SDS011;40963;52.168;21.296;2023-03-23T09:55:21;10.00;;;5.55;;
55063;SDS011;40963;52.168;21.296;2023-03-23T09:57:55;10.45;;;5.78;;
55063;SDS011;40963;52.168;21.296;2023-03-23T10:00:45;18.77;;;5.40;;
55063;SDS011;40963;52.168;21.296;2023-03-23T10:03:17;6.70;;;4.50;;
55063;SDS011;40963;52.168;21.296;2023-03-23T10:05:50;8.07;;;4.85;;
55063;SDS011;40963;52.168;21.296;2023-03-23T10:08:21;9.38;;;5.35;;
55063;SDS011;40963;52.168;21.296;2023-03-23T10:16:31;11.57;;;4.88;;
55063;SDS011;40963;52.168;21.296;2023-03-23T10:21:37;8.57;;;5.50;;
55063;SDS011;40963;52.168;21.296;2023-03-23T10:24:08;11.20;;;5.40;;
55063;SDS011;40963;52.168;21.296;2023-03-23T10:31:35;8.50;;;5.55;;
55063;SDS011;40963;52.168;21.296;2023-03-23T10:34:14;14.67;;;5.83;;
55063;SDS011;40963;52.168;21.296;2023-03-23T10:40:02;10.18;;;6.03;;
55063;SDS011;40963;52.168;21.296;2023-03-23T10:42:34;8.80;;;6.18;;
55063;SDS011;40963;52.168;21.296;2023-03-23T10:45:22;9.95;;;5.53;;
55063;SDS011;40963;52.168;21.296;2023-03-23T10:48:17;11.23;;;6.13;;
55063;SDS011;40963;52.168;21.296;2023-03-23T10:50:48;8.98;;;5.97;;
55063;SDS011;40963;52.168;21.296;2023-03-23T10:55:48;12.43;;;5.50;;
55063;SDS011;40963;52.168;21.296;2023-03-23T10:58:25;8.70;;;5.90;;
55063;SDS011;40963;52.168;21.296;2023-03-23T11:00:56;12.20;;;5.93;;
55063;SDS011;40963;52.168;21.296;2023-03-23T11:03:29;11.30;;;6.13;;
55063;SDS011;40963;52.168;21.296;2023-03-23T11:06:34;14.25;;;6.22;;
55063;SDS011;40963;52.168;21.296;2023-03-23T11:11:32;13.20;;;5.97;;
55063;SDS011;40963;52.168;21.296;2023-03-23T11:14:15;10.63;;;5.60;;
55063;SDS011;40963;52.168;21.296;2023-03-23T11:17:05;7.53;;;4.90;;
55063;SDS011;40963;52.168;21.296;2023-03-23T11:19:44;9.88;;;5.40;;
55063;SDS011;40963;52.168;21.296;2023-03-23T11:22:19;8.23;;;4.00;;
55063;SDS011;40963;52.168;21.296;2023-03-23T11:24:52;8.50;;;4.45;;
55063;SDS011;40963;52.168;21.296;2023-03-23T11:27:22;7.53;;;4.43;;
55063;SDS011;40963;52.168;21.296;2023-03-23T11:29:56;3.78;;;3.03;;
55063;SDS011;40963;52.168;21.296;2023-03-23T11:32:36;6.82;;;4.72;;
55063;SDS011;40963;52.168;21.296;2023-03-23T11:35:06;8.70;;;4.15;;
55063;SDS011;40963;52.168;21.296;2023-03-23T11:37:41;10.68;;;5.10;;
55063;SDS011;40963;52.168;21.296;2023-03-23T11:42:46;13.65;;;4.60;;
55063;SDS011;40963;52.168;21.296;2023-03-23T11:45:25;9.88;;;4.60;;
55063;SDS011;40963;52.168;21.296;2023-03-23T11:48:12;7.82;;;4.13;;
55063;SDS011;40963;52.168;21.296;2023-03-23T11:50:48;4.80;;;3.40;;
55063;SDS011;40963;52.168;21.296;2023-03-23T11:56:06;7.25;;;3.67;;
55063;SDS011;40963;52.168;21.296;2023-03-23T11:58:37;5.10;;;3.45;;
55063;SDS011;40963;52.168;21.296;2023-03-23T12:01:16;4.55;;;2.80;;
55063;SDS011;40963;52.168;21.296;2023-03-23T12:12:12;2.85;;;2.20;;
55063;SDS011;40963;52.168;21.296;2023-03-23T12:20:23;6.73;;;2.00;;
55063;SDS011;40963;52.168;21.296;2023-03-23T12:31:31;7.97;;;2.47;;
55063;SDS011;40963;52.168;21.296;2023-03-23T12:34:13;9.27;;;2.40;;
55063;SDS011;40963;52.168;21.296;2023-03-23T12:48:46;7.68;;;2.70;;
55063;SDS011;40963;52.168;21.296;2023-03-23T12:59:32;10.80;;;3.30;;
55063;SDS011;40963;52.168;21.296;2023-03-23T13:02:24;11.35;;;3.58;;
55063;SDS011;40963;52.168;21.296;2023-03-23T13:07:43;3.33;;;2.95;;
55063;SDS011;40963;52.168;21.296;2023-03-23T13:10:15;5.22;;;3.03;;
55063;SDS011;40963;52.168;21.296;2023-03-23T13:12:49;7.78;;;2.90;;
55063;SDS011;40963;52.168;21.296;2023-03-23T13:18:19;4.82;;;3.53;;
55063;SDS011;40963;52.168;21.296;2023-03-23T13:21:05;6.10;;;3.20;;
55063;SDS011;40963;52.168;21.296;2023-03-23T13:23:59;5.70;;;3.40;;
55063;SDS011;40963;52.168;21.296;2023-03-23T13:26:29;7.38;;;3.90;;
55063;SDS011;40963;52.168;21.296;2023-03-23T13:28:57;4.38;;;3.10;;
55063;SDS011;40963;52.168;21.296;2023-03-23T13:31:33;6.43;;;3.30;;
55063;SDS011;40963;52.168;21.296;2023-03-23T13:36:36;4.55;;;3.45;;
55063;SDS011;40963;52.168;21.296;2023-03-23T13:39:06;5.43;;;3.50;;
55063;SDS011;40963;52.168;21.296;2023-03-23T13:41:58;3.47;;;2.33;;
55063;SDS011;40963;52.168;21.296;2023-03-23T13:49:56;6.47;;;3.10;;
55063;SDS011;40963;52.168;21.296;2023-03-23T14:03:38;6.00;;;3.15;;
55063;SDS011;40963;52.168;21.296;2023-03-23T14:06:12;8.45;;;3.38;;
55063;SDS011;40963;52.168;21.296;2023-03-23T14:08:41;7.47;;;3.40;;
55063;SDS011;40963;52.168;21.296;2023-03-23T14:11:13;6.93;;;3.13;;
55063;SDS011;40963;52.168;21.296;2023-03-23T14:13:43;6.32;;;3.10;;
55063;SDS011;40963;52.168;21.296;2023-03-23T14:16:17;5.05;;;2.95;;
55063;SDS011;40963;52.168;21.296;2023-03-23T14:18:51;5.50;;;2.40;;
55063;SDS011;40963;52.168;21.296;2023-03-23T14:21:25;6.63;;;2.78;;
55063;SDS011;40963;52.168;21.296;2023-03-23T14:24:03;4.60;;;2.67;;
55063;SDS011;40963;52.168;21.296;2023-03-23T14:26:36;6.13;;;2.78;;
55063;SDS011;40963;52.168;21.296;2023-03-23T14:29:03;3.55;;;2.58;;
55063;SDS011;40963;52.168;21.296;2023-03-23T14:31:30;2.97;;;2.53;;
55063;SDS011;40963;52.168;21.296;2023-03-23T14:34:00;6.72;;;2.90;;
55063;SDS011;40963;52.168;21.296;2023-03-23T14:36:29;4.90;;;2.42;;
55063;SDS011;40963;52.168;21.296;2023-03-23T14:39:00;3.20;;;2.00;;
55063;SDS011;40963;52.168;21.296;2023-03-23T14:41:31;3.25;;;1.27;;
55063;SDS011;40963;52.168;21.296;2023-03-23T14:43:59;5.30;;;2.22;;
55063;SDS011;40963;52.168;21.296;2023-03-23T14:46:26;4.57;;;2.35;;
55063;SDS011;40963;52.168;21.296;2023-03-23T14:48:54;3.70;;;2.30;;
55063;SDS011;40963;52.168;21.296;2023-03-23T14:51:20;3.50;;;2.42;;
55063;SDS011;40963;52.168;21.296;2023-03-23T14:53:46;4.20;;;2.65;;
55063;SDS011;40963;52.168;21.296;2023-03-23T14:56:20;3.60;;;2.25;;
55063;SDS011;40963;52.168;21.296;2023-03-23T14:58:51;4.50;;;2.25;;
55063;SDS011;40963;52.168;21.296;2023-03-23T15:01:18;4.50;;;2.63;;
55063;SDS011;40963;52.168;21.296;2023-03-23T15:06:24;11.52;;;2.72;;
55063;SDS011;40963;52.168;21.296;2023-03-23T15:08:54;4.47;;;2.17;;
55063;SDS011;40963;52.168;21.296;2023-03-23T15:11:23;4.85;;;2.70;;
55063;SDS011;40963;52.168;21.296;2023-03-23T15:13:53;8.70;;;3.10;;
55063;SDS011;40963;52.168;21.296;2023-03-23T15:16:27;4.20;;;2.70;;
55063;SDS011;40963;52.168;21.296;2023-03-23T15:18:56;6.53;;;2.65;;
55063;SDS011;40963;52.168;21.296;2023-03-23T15:21:46;3.67;;;2.63;;
55063;SDS011;40963;52.168;21.296;2023-03-23T15:24:24;7.50;;;2.83;;
55063;SDS011;40963;52.168;21.296;2023-03-23T15:26:50;3.15;;;2.00;;
55063;SDS011;40963;52.168;21.296;2023-03-23T15:29:17;4.80;;;3.40;;
55063;SDS011;40963;52.168;21.296;2023-03-23T15:31:52;6.93;;;3.15;;
55063;SDS011;40963;52.168;21.296;2023-03-23T15:34:29;5.32;;;3.33;;
55063;SDS011;40963;52.168;21.296;2023-03-23T15:37:00;5.03;;;2.95;;
55063;SDS011;40963;52.168;21.296;2023-03-23T15:39:28;6.05;;;2.85;;
55063;SDS011;40963;52.168;21.296;2023-03-23T15:41:55;7.35;;;2.90;;
55063;SDS011;40963;52.168;21.296;2023-03-23T15:44:22;7.03;;;3.42;;
55063;SDS011;40963;52.168;21.296;2023-03-23T15:46:51;8.35;;;3.10;;
55063;SDS011;40963;52.168;21.296;2023-03-23T15:49:18;9.13;;;2.70;;
55063;SDS011;40963;52.168;21.296;2023-03-23T15:51:45;12.95;;;3.40;;
55063;SDS011;40963;52.168;21.296;2023-03-23T15:54:15;7.13;;;3.10;;
55063;SDS011;40963;52.168;21.296;2023-03-23T15:56:41;5.05;;;3.28;;
55063;SDS011;40963;52.168;21.296;2023-03-23T15:59:08;7.55;;;3.30;;
55063;SDS011;40963;52.168;21.296;2023-03-23T16:01:34;5.60;;;3.13;;
55063;SDS011;40963;52.168;21.296;2023-03-23T16:04:04;7.18;;;3.72;;
55063;SDS011;40963;52.168;21.296;2023-03-23T16:06:38;6.20;;;3.50;;
55063;SDS011;40963;52.168;21.296;2023-03-23T16:09:05;5.68;;;3.65;;
55063;SDS011;40963;52.168;21.296;2023-03-23T16:11:33;7.85;;;4.10;;
55063;SDS011;40963;52.168;21.296;2023-03-23T16:13:59;5.20;;;3.60;;
55063;SDS011;40963;52.168;21.296;2023-03-23T16:16:58;9.88;;;4.00;;
55063;SDS011;40963;52.168;21.296;2023-03-23T16:19:17;6.15;;;3.35;;
55063;SDS011;40963;52.168;21.296;2023-03-23T16:21:44;7.18;;;3.70;;
55063;SDS011;40963;52.168;21.296;2023-03-23T16:24:10;6.80;;;3.85;;
55063;SDS011;40963;52.168;21.296;2023-03-23T16:26:36;6.88;;;3.72;;
55063;SDS011;40963;52.168;21.296;2023-03-23T16:29:14;9.13;;;3.90;;
55063;SDS011;40963;52.168;21.296;2023-03-23T16:31:40;9.45;;;4.10;;
55063;SDS011;40963;52.168;21.296;2023-03-23T16:34:06;5.72;;;3.75;;
55063;SDS011;40963;52.168;21.296;2023-03-23T16:36:32;6.20;;;3.75;;
55063;SDS011;40963;52.168;21.296;2023-03-23T16:38:58;5.28;;;3.50;;